sensor_id;sensor_type;location;lat;lon;timestamp;temperature;humidity
9271;DHT22;4673;53.458;9.940;2023-11-21T00:00:49;8.90;99.90
9271;DHT22;4673;53.458;9.940;2023-11-21T00:03:15;9.00;99.90
9271;DHT22;4673;53.458;9.940;2023-11-21T00:05:41;8.90;99.90
9271;DHT22;4673;53.458;9.940;2023-11-21T00:08:07;8.90;99.90
9271;DHT22;4673;53.458;9.940;2023-11-21T00:10:34;8.90;99.90
9271;DHT22;4673;53.458;9.940;2023-11-21T00:13:00;8.90;99.90
9271;DHT22;4673;53.458;9.940;2023-11-21T00:15:28;8.80;99.90
9271;DHT22;4673;53.458;9.940;2023-11-21T00:17:53;8.80;99.90
9271;DHT22;4673;53.458;9.940;2023-11-21T00:20:20;8.80;99.90
9271;DHT22;4673;53.458;9.940;2023-11-21T00:22:47;8.80;99.90
9271;DHT22;4673;53.458;9.940;2023-11-21T00:25:13;8.70;99.80
9271;DHT22;4673;53.458;9.940;2023-11-21T00:27:41;8.70;99.90
9271;DHT22;4673;53.458;9.940;2023-11-21T00:30:07;8.70;99.90
9271;DHT22;4673;53.458;9.940;2023-11-21T00:32:35;8.70;99.80
9271;DHT22;4673;53.458;9.940;2023-11-21T00:35:01;8.70;99.80
9271;DHT22;4673;53.458;9.940;2023-11-21T00:37:27;8.60;99.30
9271;DHT22;4673;53.458;9.940;2023-11-21T00:39:52;8.50;99.10
9271;DHT22;4673;53.458;9.940;2023-11-21T00:42:18;8.40;98.70
9271;DHT22;4673;53.458;9.940;2023-11-21T00:44:44;8.40;98.70
9271;DHT22;4673;53.458;9.940;2023-11-21T00:47:09;8.30;98.50
9271;DHT22;4673;53.458;9.940;2023-11-21T00:49:35;8.30;98.70
9271;DHT22;4673;53.458;9.940;2023-11-21T00:52:01;8.10;98.20
9271;DHT22;4673;53.458;9.940;2023-11-21T00:54:27;8.10;98.30
9271;DHT22;4673;53.458;9.940;2023-11-21T00:56:53;8.10;98.30
9271;DHT22;4673;53.458;9.940;2023-11-21T00:59:19;8.10;98.40
9271;DHT22;4673;53.458;9.940;2023-11-21T01:01:44;8.00;98.30
9271;DHT22;4673;53.458;9.940;2023-11-21T01:04:10;8.10;98.50
9271;DHT22;4673;53.458;9.940;2023-11-21T01:06:36;8.10;98.30
9271;DHT22;4673;53.458;9.940;2023-11-21T01:09:02;8.00;98.10
9271;DHT22;4673;53.458;9.940;2023-11-21T01:11:36;7.90;98.00
9271;DHT22;4673;53.458;9.940;2023-11-21T01:14:02;7.90;97.80
9271;DHT22;4673;53.458;9.940;2023-11-21T01:16:29;7.80;97.60
9271;DHT22;4673;53.458;9.940;2023-11-21T01:18:54;7.70;97.50
9271;DHT22;4673;53.458;9.940;2023-11-21T01:21:20;7.70;97.50
9271;DHT22;4673;53.458;9.940;2023-11-21T01:23:46;7.70;97.60
9271;DHT22;4673;53.458;9.940;2023-11-21T01:26:13;7.60;97.30
9271;DHT22;4673;53.458;9.940;2023-11-21T01:28:38;7.50;96.80
9271;DHT22;4673;53.458;9.940;2023-11-21T01:31:04;7.40;97.00
9271;DHT22;4673;53.458;9.940;2023-11-21T01:33:30;7.40;97.10
9271;DHT22;4673;53.458;9.940;2023-11-21T01:35:55;7.40;97.20
9271;DHT22;4673;53.458;9.940;2023-11-21T01:38:21;7.40;97.30
9271;DHT22;4673;53.458;9.940;2023-11-21T01:40:47;7.40;97.20
9271;DHT22;4673;53.458;9.940;2023-11-21T01:43:13;7.30;97.40
9271;DHT22;4673;53.458;9.940;2023-11-21T01:45:39;7.30;97.40
9271;DHT22;4673;53.458;9.940;2023-11-21T01:48:05;7.30;97.20
9271;DHT22;4673;53.458;9.940;2023-11-21T01:50:33;7.20;97.00
9271;DHT22;4673;53.458;9.940;2023-11-21T01:53:00;7.20;97.00
9271;DHT22;4673;53.458;9.940;2023-11-21T01:55:27;7.20;97.10
9271;DHT22;4673;53.458;9.940;2023-11-21T01:57:53;7.20;96.90
9271;DHT22;4673;53.458;9.940;2023-11-21T02:00:19;7.20;96.70
9271;DHT22;4673;53.458;9.940;2023-11-21T02:02:45;7.00;96.20
9271;DHT22;4673;53.458;9.940;2023-11-21T02:05:12;7.00;96.20
9271;DHT22;4673;53.458;9.940;2023-11-21T02:07:42;7.00;96.20
9271;DHT22;4673;53.458;9.940;2023-11-21T02:10:11;7.10;96.30
9271;DHT22;4673;53.458;9.940;2023-11-21T02:12:40;7.00;95.80
9271;DHT22;4673;53.458;9.940;2023-11-21T02:15:08;7.00;95.80
9271;DHT22;4673;53.458;9.940;2023-11-21T02:17:41;7.00;95.40
9271;DHT22;4673;53.458;9.940;2023-11-21T02:20:12;7.00;95.00
9271;DHT22;4673;53.458;9.940;2023-11-21T02:22:41;7.00;94.80
9271;DHT22;4673;53.458;9.940;2023-11-21T02:25:10;7.00;94.40
9271;DHT22;4673;53.458;9.940;2023-11-21T02:27:36;7.00;94.00
9271;DHT22;4673;53.458;9.940;2023-11-21T02:30:03;7.00;93.80
9271;DHT22;4673;53.458;9.940;2023-11-21T02:32:30;7.00;93.50
9271;DHT22;4673;53.458;9.940;2023-11-21T02:34:57;6.90;93.10
9271;DHT22;4673;53.458;9.940;2023-11-21T02:37:26;6.90;92.80
9271;DHT22;4673;53.458;9.940;2023-11-21T02:39:52;6.90;92.30
9271;DHT22;4673;53.458;9.940;2023-11-21T02:42:18;6.80;91.40
9271;DHT22;4673;53.458;9.940;2023-11-21T02:44:44;6.80;91.40
9271;DHT22;4673;53.458;9.940;2023-11-21T02:47:10;6.80;91.30
9271;DHT22;4673;53.458;9.940;2023-11-21T02:49:35;6.80;90.90
9271;DHT22;4673;53.458;9.940;2023-11-21T02:52:01;6.80;90.50
9271;DHT22;4673;53.458;9.940;2023-11-21T02:54:27;6.80;90.30
9271;DHT22;4673;53.458;9.940;2023-11-21T02:56:53;6.80;90.00
9271;DHT22;4673;53.458;9.940;2023-11-21T02:59:18;6.80;89.80
9271;DHT22;4673;53.458;9.940;2023-11-21T03:01:45;6.80;89.50
9271;DHT22;4673;53.458;9.940;2023-11-21T03:04:12;6.70;88.70
9271;DHT22;4673;53.458;9.940;2023-11-21T03:06:43;6.80;89.00
9271;DHT22;4673;53.458;9.940;2023-11-21T03:09:09;6.80;89.00
9271;DHT22;4673;53.458;9.940;2023-11-21T03:11:35;6.80;89.00
9271;DHT22;4673;53.458;9.940;2023-11-21T03:14:01;6.80;88.70
9271;DHT22;4673;53.458;9.940;2023-11-21T03:16:26;6.70;88.00
9271;DHT22;4673;53.458;9.940;2023-11-21T03:18:52;6.70;87.90
9271;DHT22;4673;53.458;9.940;2023-11-21T03:21:18;6.70;87.70
9271;DHT22;4673;53.458;9.940;2023-11-21T03:23:44;6.70;87.70
9271;DHT22;4673;53.458;9.940;2023-11-21T03:26:13;6.70;87.70
9271;DHT22;4673;53.458;9.940;2023-11-21T03:28:39;6.70;87.80
9271;DHT22;4673;53.458;9.940;2023-11-21T03:31:05;6.60;87.50
9271;DHT22;4673;53.458;9.940;2023-11-21T03:33:32;6.60;87.40
9271;DHT22;4673;53.458;9.940;2023-11-21T03:35:58;6.50;87.10
9271;DHT22;4673;53.458;9.940;2023-11-21T03:38:23;6.50;87.20
9271;DHT22;4673;53.458;9.940;2023-11-21T03:40:49;6.50;87.10
9271;DHT22;4673;53.458;9.940;2023-11-21T03:43:16;6.60;87.00
9271;DHT22;4673;53.458;9.940;2023-11-21T03:45:41;6.50;86.90
9271;DHT22;4673;53.458;9.940;2023-11-21T03:48:07;6.50;86.90
9271;DHT22;4673;53.458;9.940;2023-11-21T03:50:34;6.40;86.80
9271;DHT22;4673;53.458;9.940;2023-11-21T03:53:00;6.30;86.70
9271;DHT22;4673;53.458;9.940;2023-11-21T03:55:26;6.30;86.60
9271;DHT22;4673;53.458;9.940;2023-11-21T03:57:52;6.30;86.70
9271;DHT22;4673;53.458;9.940;2023-11-21T04:00:18;6.30;86.80
9271;DHT22;4673;53.458;9.940;2023-11-21T04:02:45;6.30;86.80
9271;DHT22;4673;53.458;9.940;2023-11-21T04:05:11;6.30;86.90
9271;DHT22;4673;53.458;9.940;2023-11-21T04:07:37;6.40;86.90
9271;DHT22;4673;53.458;9.940;2023-11-21T04:10:05;6.30;87.00
9271;DHT22;4673;53.458;9.940;2023-11-21T04:12:33;6.30;86.80
9271;DHT22;4673;53.458;9.940;2023-11-21T04:14:59;6.30;86.60
9271;DHT22;4673;53.458;9.940;2023-11-21T04:17:24;6.30;86.60
9271;DHT22;4673;53.458;9.940;2023-11-21T04:19:50;6.30;86.50
9271;DHT22;4673;53.458;9.940;2023-11-21T04:22:16;6.30;86.40
9271;DHT22;4673;53.458;9.940;2023-11-21T04:24:41;6.30;86.30
9271;DHT22;4673;53.458;9.940;2023-11-21T04:27:07;6.20;86.00
9271;DHT22;4673;53.458;9.940;2023-11-21T04:29:33;6.20;85.90
9271;DHT22;4673;53.458;9.940;2023-11-21T04:31:59;6.20;86.00
9271;DHT22;4673;53.458;9.940;2023-11-21T04:34:24;6.20;85.90
9271;DHT22;4673;53.458;9.940;2023-11-21T04:36:50;6.20;85.80
9271;DHT22;4673;53.458;9.940;2023-11-21T04:39:16;6.20;85.80
9271;DHT22;4673;53.458;9.940;2023-11-21T04:41:41;6.20;85.80
9271;DHT22;4673;53.458;9.940;2023-11-21T04:44:08;6.20;85.90
9271;DHT22;4673;53.458;9.940;2023-11-21T04:46:33;6.20;86.10
9271;DHT22;4673;53.458;9.940;2023-11-21T04:48:59;6.30;86.30
9271;DHT22;4673;53.458;9.940;2023-11-21T04:51:25;6.30;86.20
9271;DHT22;4673;53.458;9.940;2023-11-21T04:53:50;6.30;86.10
9271;DHT22;4673;53.458;9.940;2023-11-21T04:56:16;6.30;85.80
9271;DHT22;4673;53.458;9.940;2023-11-21T04:58:42;6.40;85.70
9271;DHT22;4673;53.458;9.940;2023-11-21T05:01:08;6.30;85.60
9271;DHT22;4673;53.458;9.940;2023-11-21T05:03:33;6.30;85.60
9271;DHT22;4673;53.458;9.940;2023-11-21T05:06:00;6.30;85.60
9271;DHT22;4673;53.458;9.940;2023-11-21T05:08:25;6.40;85.40
9271;DHT22;4673;53.458;9.940;2023-11-21T05:10:52;6.30;85.50
9271;DHT22;4673;53.458;9.940;2023-11-21T05:13:19;6.30;85.50
9271;DHT22;4673;53.458;9.940;2023-11-21T05:15:45;6.30;85.50
9271;DHT22;4673;53.458;9.940;2023-11-21T05:18:11;6.40;85.40
9271;DHT22;4673;53.458;9.940;2023-11-21T05:20:39;6.30;85.40
9271;DHT22;4673;53.458;9.940;2023-11-21T05:23:06;6.40;85.40
9271;DHT22;4673;53.458;9.940;2023-11-21T05:25:33;6.40;85.40
9271;DHT22;4673;53.458;9.940;2023-11-21T05:27:59;6.40;85.10
9271;DHT22;4673;53.458;9.940;2023-11-21T05:30:26;6.40;85.00
9271;DHT22;4673;53.458;9.940;2023-11-21T05:32:52;6.30;84.90
9271;DHT22;4673;53.458;9.940;2023-11-21T05:35:19;6.40;85.00
9271;DHT22;4673;53.458;9.940;2023-11-21T05:37:45;6.40;85.10
9271;DHT22;4673;53.458;9.940;2023-11-21T05:40:11;6.30;85.10
9271;DHT22;4673;53.458;9.940;2023-11-21T05:42:39;6.40;85.00
9271;DHT22;4673;53.458;9.940;2023-11-21T05:45:09;6.30;84.90
9271;DHT22;4673;53.458;9.940;2023-11-21T05:47:40;6.40;84.60
9271;DHT22;4673;53.458;9.940;2023-11-21T05:50:10;6.30;84.60
9271;DHT22;4673;53.458;9.940;2023-11-21T05:52:44;6.30;84.40
9271;DHT22;4673;53.458;9.940;2023-11-21T05:55:10;6.30;84.30
9271;DHT22;4673;53.458;9.940;2023-11-21T05:57:37;6.30;84.10
9271;DHT22;4673;53.458;9.940;2023-11-21T06:00:10;6.30;84.10
9271;DHT22;4673;53.458;9.940;2023-11-21T06:02:40;6.30;83.90
9271;DHT22;4673;53.458;9.940;2023-11-21T06:05:10;6.30;83.90
9271;DHT22;4673;53.458;9.940;2023-11-21T06:07:36;6.30;83.80
9271;DHT22;4673;53.458;9.940;2023-11-21T06:10:05;6.20;83.60
9271;DHT22;4673;53.458;9.940;2023-11-21T06:12:34;6.20;83.60
9271;DHT22;4673;53.458;9.940;2023-11-21T06:15:04;6.20;83.80
9271;DHT22;4673;53.458;9.940;2023-11-21T06:17:32;6.30;84.10
9271;DHT22;4673;53.458;9.940;2023-11-21T06:19:59;6.30;84.00
9271;DHT22;4673;53.458;9.940;2023-11-21T06:22:26;6.30;83.90
9271;DHT22;4673;53.458;9.940;2023-11-21T06:24:51;6.30;84.00
9271;DHT22;4673;53.458;9.940;2023-11-21T06:27:17;6.30;83.90
9271;DHT22;4673;53.458;9.940;2023-11-21T06:29:43;6.30;83.80
9271;DHT22;4673;53.458;9.940;2023-11-21T06:32:09;6.30;83.30
9271;DHT22;4673;53.458;9.940;2023-11-21T06:34:34;6.30;83.10
9271;DHT22;4673;53.458;9.940;2023-11-21T06:37:00;6.30;83.10
9271;DHT22;4673;53.458;9.940;2023-11-21T06:39:26;6.30;83.00
9271;DHT22;4673;53.458;9.940;2023-11-21T06:41:53;6.30;82.90
9271;DHT22;4673;53.458;9.940;2023-11-21T06:44:18;6.30;83.20
9271;DHT22;4673;53.458;9.940;2023-11-21T06:46:45;6.30;83.20
9271;DHT22;4673;53.458;9.940;2023-11-21T06:49:11;6.30;83.10
9271;DHT22;4673;53.458;9.940;2023-11-21T06:51:36;6.30;83.10
9271;DHT22;4673;53.458;9.940;2023-11-21T06:54:02;6.30;83.20
9271;DHT22;4673;53.458;9.940;2023-11-21T06:56:28;6.30;82.60
9271;DHT22;4673;53.458;9.940;2023-11-21T06:58:54;6.30;82.60
9271;DHT22;4673;53.458;9.940;2023-11-21T07:01:19;6.30;82.50
9271;DHT22;4673;53.458;9.940;2023-11-21T07:03:45;6.30;82.70
9271;DHT22;4673;53.458;9.940;2023-11-21T07:06:11;6.40;82.80
9271;DHT22;4673;53.458;9.940;2023-11-21T07:08:37;6.30;82.70
9271;DHT22;4673;53.458;9.940;2023-11-21T07:11:03;6.40;82.70
9271;DHT22;4673;53.458;9.940;2023-11-21T07:13:29;6.30;82.40
9271;DHT22;4673;53.458;9.940;2023-11-21T07:15:56;6.30;82.40
9271;DHT22;4673;53.458;9.940;2023-11-21T07:18:21;6.30;82.20
9271;DHT22;4673;53.458;9.940;2023-11-21T07:20:48;6.40;82.00
9271;DHT22;4673;53.458;9.940;2023-11-21T07:23:14;6.40;82.10
9271;DHT22;4673;53.458;9.940;2023-11-21T07:25:41;6.40;81.80
9271;DHT22;4673;53.458;9.940;2023-11-21T07:28:09;6.30;82.20
9271;DHT22;4673;53.458;9.940;2023-11-21T07:30:34;6.30;81.90
9271;DHT22;4673;53.458;9.940;2023-11-21T07:33:00;6.30;82.10
9271;DHT22;4673;53.458;9.940;2023-11-21T07:35:26;6.30;82.30
9271;DHT22;4673;53.458;9.940;2023-11-21T07:37:52;6.40;82.30
9271;DHT22;4673;53.458;9.940;2023-11-21T07:40:17;6.40;82.10
9271;DHT22;4673;53.458;9.940;2023-11-21T07:42:43;6.40;82.00
9271;DHT22;4673;53.458;9.940;2023-11-21T07:45:09;6.40;81.70
9271;DHT22;4673;53.458;9.940;2023-11-21T07:47:35;6.40;81.50
9271;DHT22;4673;53.458;9.940;2023-11-21T07:50:03;6.50;81.60
9271;DHT22;4673;53.458;9.940;2023-11-21T07:52:28;6.50;81.20
9271;DHT22;4673;53.458;9.940;2023-11-21T07:54:54;6.40;80.80
9271;DHT22;4673;53.458;9.940;2023-11-21T07:57:20;6.50;81.10
9271;DHT22;4673;53.458;9.940;2023-11-21T07:59:45;6.50;81.30
9271;DHT22;4673;53.458;9.940;2023-11-21T08:02:11;6.70;81.00
9271;DHT22;4673;53.458;9.940;2023-11-21T08:04:37;6.70;80.50
9271;DHT22;4673;53.458;9.940;2023-11-21T08:07:03;6.70;79.70
9271;DHT22;4673;53.458;9.940;2023-11-21T08:09:29;6.70;79.80
9271;DHT22;4673;53.458;9.940;2023-11-21T08:11:55;6.80;80.10
9271;DHT22;4673;53.458;9.940;2023-11-21T08:14:22;6.80;80.10
9271;DHT22;4673;53.458;9.940;2023-11-21T08:16:47;6.80;78.90
9271;DHT22;4673;53.458;9.940;2023-11-21T08:19:13;6.80;79.10
9271;DHT22;4673;53.458;9.940;2023-11-21T08:21:39;6.80;78.30
9271;DHT22;4673;53.458;9.940;2023-11-21T08:24:08;6.90;78.60
9271;DHT22;4673;53.458;9.940;2023-11-21T08:26:36;6.90;78.00
9271;DHT22;4673;53.458;9.940;2023-11-21T08:29:02;7.00;78.40
9271;DHT22;4673;53.458;9.940;2023-11-21T08:31:28;7.00;77.20
9271;DHT22;4673;53.458;9.940;2023-11-21T08:33:55;7.10;76.50
9271;DHT22;4673;53.458;9.940;2023-11-21T08:36:23;7.10;76.60
9271;DHT22;4673;53.458;9.940;2023-11-21T08:38:50;7.30;76.80
9271;DHT22;4673;53.458;9.940;2023-11-21T08:41:18;7.30;74.90
9271;DHT22;4673;53.458;9.940;2023-11-21T08:43:48;7.30;75.20
9271;DHT22;4673;53.458;9.940;2023-11-21T08:46:14;7.40;75.30
9271;DHT22;4673;53.458;9.940;2023-11-21T08:48:41;7.40;74.10
9271;DHT22;4673;53.458;9.940;2023-11-21T08:51:09;7.40;71.60
9271;DHT22;4673;53.458;9.940;2023-11-21T08:53:35;7.40;71.00
9271;DHT22;4673;53.458;9.940;2023-11-21T08:56:01;7.40;71.10
9271;DHT22;4673;53.458;9.940;2023-11-21T08:58:27;7.40;70.40
9271;DHT22;4673;53.458;9.940;2023-11-21T09:00:53;7.40;70.10
9271;DHT22;4673;53.458;9.940;2023-11-21T09:03:18;7.40;69.60
9271;DHT22;4673;53.458;9.940;2023-11-21T09:05:44;7.40;67.90
9271;DHT22;4673;53.458;9.940;2023-11-21T09:08:10;7.30;68.20
9271;DHT22;4673;53.458;9.940;2023-11-21T09:10:36;7.30;68.60
9271;DHT22;4673;53.458;9.940;2023-11-21T09:13:02;7.40;68.70
9271;DHT22;4673;53.458;9.940;2023-11-21T09:15:28;7.40;68.80
9271;DHT22;4673;53.458;9.940;2023-11-21T09:17:54;7.50;68.90
9271;DHT22;4673;53.458;9.940;2023-11-21T09:20:19;7.50;68.30
9271;DHT22;4673;53.458;9.940;2023-11-21T09:22:48;7.40;67.20
9271;DHT22;4673;53.458;9.940;2023-11-21T09:25:14;7.40;67.10
9271;DHT22;4673;53.458;9.940;2023-11-21T09:27:40;7.30;66.80
9271;DHT22;4673;53.458;9.940;2023-11-21T09:30:07;7.40;67.40
9271;DHT22;4673;53.458;9.940;2023-11-21T09:32:37;7.40;66.20
9271;DHT22;4673;53.458;9.940;2023-11-21T09:35:06;7.30;66.70
9271;DHT22;4673;53.458;9.940;2023-11-21T09:37:34;7.30;66.80
9271;DHT22;4673;53.458;9.940;2023-11-21T09:40:03;7.30;67.00
9271;DHT22;4673;53.458;9.940;2023-11-21T09:42:36;7.20;64.50
9271;DHT22;4673;53.458;9.940;2023-11-21T09:47:35;7.30;66.40
9271;DHT22;4673;53.458;9.940;2023-11-21T09:50:03;7.40;66.60
9271;DHT22;4673;53.458;9.940;2023-11-21T09:52:29;7.60;66.60
9271;DHT22;4673;53.458;9.940;2023-11-21T09:54:56;7.60;65.20
9271;DHT22;4673;53.458;9.940;2023-11-21T09:57:27;7.60;64.80
9271;DHT22;4673;53.458;9.940;2023-11-21T09:59:54;7.70;65.40
9271;DHT22;4673;53.458;9.940;2023-11-21T10:02:28;7.50;64.90
9271;DHT22;4673;53.458;9.940;2023-11-21T10:04:56;7.60;65.70
9271;DHT22;4673;53.458;9.940;2023-11-21T10:07:22;7.60;65.60
9271;DHT22;4673;53.458;9.940;2023-11-21T10:09:51;7.60;65.80
9271;DHT22;4673;53.458;9.940;2023-11-21T10:12:16;7.60;66.20
9271;DHT22;4673;53.458;9.940;2023-11-21T10:14:43;7.70;66.00
9271;DHT22;4673;53.458;9.940;2023-11-21T10:17:12;7.80;65.80
9271;DHT22;4673;53.458;9.940;2023-11-21T10:19:39;7.90;66.00
9271;DHT22;4673;53.458;9.940;2023-11-21T10:22:06;7.90;64.20
9271;DHT22;4673;53.458;9.940;2023-11-21T10:24:35;7.80;64.50
9271;DHT22;4673;53.458;9.940;2023-11-21T10:27:02;7.80;64.50
9271;DHT22;4673;53.458;9.940;2023-11-21T10:29:31;7.70;64.30
9271;DHT22;4673;53.458;9.940;2023-11-21T10:32:02;7.70;64.50
9271;DHT22;4673;53.458;9.940;2023-11-21T10:34:28;7.70;64.70
9271;DHT22;4673;53.458;9.940;2023-11-21T10:36:53;7.90;65.20
9271;DHT22;4673;53.458;9.940;2023-11-21T10:39:22;7.70;63.90
9271;DHT22;4673;53.458;9.940;2023-11-21T10:41:49;7.80;64.60
9271;DHT22;4673;53.458;9.940;2023-11-21T10:44:17;7.80;64.30
9271;DHT22;4673;53.458;9.940;2023-11-21T10:46:50;7.90;65.70
9271;DHT22;4673;53.458;9.940;2023-11-21T10:49:27;7.90;64.30
9271;DHT22;4673;53.458;9.940;2023-11-21T10:51:56;7.90;63.90
9271;DHT22;4673;53.458;9.940;2023-11-21T10:54:23;7.90;63.60
9271;DHT22;4673;53.458;9.940;2023-11-21T10:56:57;7.90;63.70
9271;DHT22;4673;53.458;9.940;2023-11-21T10:59:28;7.70;63.60
9271;DHT22;4673;53.458;9.940;2023-11-21T11:01:54;7.70;65.10
9271;DHT22;4673;53.458;9.940;2023-11-21T11:04:23;7.70;64.50
9271;DHT22;4673;53.458;9.940;2023-11-21T11:06:57;7.60;64.80
9271;DHT22;4673;53.458;9.940;2023-11-21T11:09:24;7.70;64.90
9271;DHT22;4673;53.458;9.940;2023-11-21T11:11:52;7.80;65.60
9271;DHT22;4673;53.458;9.940;2023-11-21T11:14:19;8.00;63.30
9271;DHT22;4673;53.458;9.940;2023-11-21T11:16:45;7.80;61.90
9271;DHT22;4673;53.458;9.940;2023-11-21T11:19:11;7.80;61.40
9271;DHT22;4673;53.458;9.940;2023-11-21T11:22:00;7.80;61.90
9271;DHT22;4673;53.458;9.940;2023-11-21T11:27:44;7.90;62.00
9271;DHT22;4673;53.458;9.940;2023-11-21T11:36:04;7.50;62.60
9271;DHT22;4673;53.458;9.940;2023-11-21T11:38:32;7.50;63.00
9271;DHT22;4673;53.458;9.940;2023-11-21T11:41:03;7.60;62.90
9271;DHT22;4673;53.458;9.940;2023-11-21T11:43:29;7.50;62.50
9271;DHT22;4673;53.458;9.940;2023-11-21T11:45:58;7.70;63.00
9271;DHT22;4673;53.458;9.940;2023-11-21T11:48:29;7.70;60.00
9271;DHT22;4673;53.458;9.940;2023-11-21T11:51:11;7.50;61.60
9271;DHT22;4673;53.458;9.940;2023-11-21T11:53:45;7.60;62.20
9271;DHT22;4673;53.458;9.940;2023-11-21T11:56:29;7.80;61.00
9271;DHT22;4673;53.458;9.940;2023-11-21T11:58:58;7.70;59.00
9271;DHT22;4673;53.458;9.940;2023-11-21T12:01:26;7.60;60.00
9271;DHT22;4673;53.458;9.940;2023-11-21T12:06:36;7.80;60.30
9271;DHT22;4673;53.458;9.940;2023-11-21T12:09:02;7.80;59.80
9271;DHT22;4673;53.458;9.940;2023-11-21T12:11:31;7.90;60.00
9271;DHT22;4673;53.458;9.940;2023-11-21T12:13:58;8.20;59.70
9271;DHT22;4673;53.458;9.940;2023-11-21T12:16:25;8.10;57.30
9271;DHT22;4673;53.458;9.940;2023-11-21T12:18:53;8.20;57.60
9271;DHT22;4673;53.458;9.940;2023-11-21T12:21:20;8.10;55.80
9271;DHT22;4673;53.458;9.940;2023-11-21T12:23:46;8.00;56.40
9271;DHT22;4673;53.458;9.940;2023-11-21T12:26:15;7.90;55.10
9271;DHT22;4673;53.458;9.940;2023-11-21T12:28:40;7.90;56.00
9271;DHT22;4673;53.458;9.940;2023-11-21T12:31:06;7.90;56.50
9271;DHT22;4673;53.458;9.940;2023-11-21T12:33:34;8.00;55.80
9271;DHT22;4673;53.458;9.940;2023-11-21T12:36:00;7.90;55.60
9271;DHT22;4673;53.458;9.940;2023-11-21T12:38:34;7.70;55.80
9271;DHT22;4673;53.458;9.940;2023-11-21T12:41:00;7.70;56.00
9271;DHT22;4673;53.458;9.940;2023-11-21T12:43:26;7.60;56.20
9271;DHT22;4673;53.458;9.940;2023-11-21T12:46:07;7.60;55.40
9271;DHT22;4673;53.458;9.940;2023-11-21T12:48:37;7.50;56.30
9271;DHT22;4673;53.458;9.940;2023-11-21T12:51:05;7.30;55.40
9271;DHT22;4673;53.458;9.940;2023-11-21T12:53:32;7.30;56.30
9271;DHT22;4673;53.458;9.940;2023-11-21T12:56:05;7.10;55.90
9271;DHT22;4673;53.458;9.940;2023-11-21T12:58:31;7.00;56.60
9271;DHT22;4673;53.458;9.940;2023-11-21T13:00:59;7.10;56.80
9271;DHT22;4673;53.458;9.940;2023-11-21T13:03:25;7.10;56.60
9271;DHT22;4673;53.458;9.940;2023-11-21T13:05:51;7.10;57.30
9271;DHT22;4673;53.458;9.940;2023-11-21T13:08:21;7.00;57.50
9271;DHT22;4673;53.458;9.940;2023-11-21T13:10:50;6.90;57.10
9271;DHT22;4673;53.458;9.940;2023-11-21T13:13:16;6.80;57.80
9271;DHT22;4673;53.458;9.940;2023-11-21T13:15:50;6.70;58.00
9271;DHT22;4673;53.458;9.940;2023-11-21T13:18:17;6.80;58.00
9271;DHT22;4673;53.458;9.940;2023-11-21T13:20:43;6.70;58.40
9271;DHT22;4673;53.458;9.940;2023-11-21T13:23:10;6.60;58.70
9271;DHT22;4673;53.458;9.940;2023-11-21T13:25:39;6.70;59.40
9271;DHT22;4673;53.458;9.940;2023-11-21T13:28:07;6.70;59.40
9271;DHT22;4673;53.458;9.940;2023-11-21T13:30:35;6.70;59.90
9271;DHT22;4673;53.458;9.940;2023-11-21T13:33:04;6.70;60.00
9271;DHT22;4673;53.458;9.940;2023-11-21T13:35:34;6.70;60.40
9271;DHT22;4673;53.458;9.940;2023-11-21T13:38:17;6.70;60.90
9271;DHT22;4673;53.458;9.940;2023-11-21T13:40:48;6.60;60.80
9271;DHT22;4673;53.458;9.940;2023-11-21T13:43:16;6.50;61.80
9271;DHT22;4673;53.458;9.940;2023-11-21T13:45:44;6.50;61.90
9271;DHT22;4673;53.458;9.940;2023-11-21T13:48:11;6.50;62.30
9271;DHT22;4673;53.458;9.940;2023-11-21T13:50:43;6.50;62.40
9271;DHT22;4673;53.458;9.940;2023-11-21T13:53:14;6.50;62.40
9271;DHT22;4673;53.458;9.940;2023-11-21T13:55:58;6.50;62.80
9271;DHT22;4673;53.458;9.940;2023-11-21T13:58:24;6.50;63.20
9271;DHT22;4673;53.458;9.940;2023-11-21T14:01:00;6.60;63.30
9271;DHT22;4673;53.458;9.940;2023-11-21T14:03:27;6.50;63.30
9271;DHT22;4673;53.458;9.940;2023-11-21T14:06:05;6.50;63.90
9271;DHT22;4673;53.458;9.940;2023-11-21T14:08:40;6.60;63.90
9271;DHT22;4673;53.458;9.940;2023-11-21T14:11:07;6.50;63.30
9271;DHT22;4673;53.458;9.940;2023-11-21T14:13:32;6.40;63.80
9271;DHT22;4673;53.458;9.940;2023-11-21T14:15:59;6.50;64.50
9271;DHT22;4673;53.458;9.940;2023-11-21T14:18:27;6.40;64.40
9271;DHT22;4673;53.458;9.940;2023-11-21T14:20:57;6.40;64.60
9271;DHT22;4673;53.458;9.940;2023-11-21T14:23:22;6.40;64.30
9271;DHT22;4673;53.458;9.940;2023-11-21T14:25:49;6.30;64.60
9271;DHT22;4673;53.458;9.940;2023-11-21T14:28:16;6.20;64.50
9271;DHT22;4673;53.458;9.940;2023-11-21T14:30:42;6.20;64.50
9271;DHT22;4673;53.458;9.940;2023-11-21T14:33:08;6.20;65.20
9271;DHT22;4673;53.458;9.940;2023-11-21T14:35:36;6.20;65.20
9271;DHT22;4673;53.458;9.940;2023-11-21T14:38:02;6.20;65.30
9271;DHT22;4673;53.458;9.940;2023-11-21T14:40:31;6.30;65.00
9271;DHT22;4673;53.458;9.940;2023-11-21T14:43:00;6.20;65.10
9271;DHT22;4673;53.458;9.940;2023-11-21T14:45:26;6.20;64.80
9271;DHT22;4673;53.458;9.940;2023-11-21T14:47:52;6.20;65.00
9271;DHT22;4673;53.458;9.940;2023-11-21T14:50:34;6.20;65.20
9271;DHT22;4673;53.458;9.940;2023-11-21T14:53:19;6.10;65.00
9271;DHT22;4673;53.458;9.940;2023-11-21T14:56:05;5.90;65.10
9271;DHT22;4673;53.458;9.940;2023-11-21T14:58:33;6.00;65.90
9271;DHT22;4673;53.458;9.940;2023-11-21T15:00:59;6.00;66.20
9271;DHT22;4673;53.458;9.940;2023-11-21T15:03:26;6.00;66.00
9271;DHT22;4673;53.458;9.940;2023-11-21T15:05:59;6.00;66.00
9271;DHT22;4673;53.458;9.940;2023-11-21T15:08:30;5.90;65.40
9271;DHT22;4673;53.458;9.940;2023-11-21T15:10:58;6.00;65.70
9271;DHT22;4673;53.458;9.940;2023-11-21T15:13:24;5.90;65.40
9271;DHT22;4673;53.458;9.940;2023-11-21T15:15:52;5.90;65.70
9271;DHT22;4673;53.458;9.940;2023-11-21T15:18:20;5.90;65.70
9271;DHT22;4673;53.458;9.940;2023-11-21T15:20:46;5.70;64.80
9271;DHT22;4673;53.458;9.940;2023-11-21T15:23:12;5.70;65.30
9271;DHT22;4673;53.458;9.940;2023-11-21T15:25:43;5.70;65.90
9271;DHT22;4673;53.458;9.940;2023-11-21T15:28:10;5.80;64.80
9271;DHT22;4673;53.458;9.940;2023-11-21T15:30:36;5.70;65.20
9271;DHT22;4673;53.458;9.940;2023-11-21T15:33:02;5.70;63.40
9271;DHT22;4673;53.458;9.940;2023-11-21T15:35:29;5.80;64.20
9271;DHT22;4673;53.458;9.940;2023-11-21T15:37:55;5.80;64.20
9271;DHT22;4673;53.458;9.940;2023-11-21T15:40:25;5.80;64.10
9271;DHT22;4673;53.458;9.940;2023-11-21T15:42:50;5.80;64.20
9271;DHT22;4673;53.458;9.940;2023-11-21T15:45:16;5.80;63.80
9271;DHT22;4673;53.458;9.940;2023-11-21T15:47:44;5.70;63.90
9271;DHT22;4673;53.458;9.940;2023-11-21T15:50:10;5.70;63.10
9271;DHT22;4673;53.458;9.940;2023-11-21T15:52:36;5.60;63.70
9271;DHT22;4673;53.458;9.940;2023-11-21T15:55:02;5.50;64.30
9271;DHT22;4673;53.458;9.940;2023-11-21T15:57:28;5.40;64.80
9271;DHT22;4673;53.458;9.940;2023-11-21T15:59:54;5.40;65.30
9271;DHT22;4673;53.458;9.940;2023-11-21T16:02:19;5.40;65.30
9271;DHT22;4673;53.458;9.940;2023-11-21T16:04:45;5.40;66.10
9271;DHT22;4673;53.458;9.940;2023-11-21T16:07:12;5.40;66.00
9271;DHT22;4673;53.458;9.940;2023-11-21T16:09:37;5.40;65.50
9271;DHT22;4673;53.458;9.940;2023-11-21T16:12:05;5.30;65.80
9271;DHT22;4673;53.458;9.940;2023-11-21T16:14:36;5.30;66.20
9271;DHT22;4673;53.458;9.940;2023-11-21T16:17:08;5.30;65.10
9271;DHT22;4673;53.458;9.940;2023-11-21T16:19:34;5.30;65.30
9271;DHT22;4673;53.458;9.940;2023-11-21T16:22:00;5.40;65.00
9271;DHT22;4673;53.458;9.940;2023-11-21T16:24:26;5.30;64.20
9271;DHT22;4673;53.458;9.940;2023-11-21T16:26:56;5.30;64.40
9271;DHT22;4673;53.458;9.940;2023-11-21T16:29:22;5.30;64.40
9271;DHT22;4673;53.458;9.940;2023-11-21T16:31:48;5.40;64.60